createdAt,value
2017-08-26T00:00:26.260Z,19.31
2017-08-26T00:01:06.797Z,19.33
2017-08-26T00:01:47.349Z,19.26
2017-08-26T00:02:27.884Z,19.25
2017-08-26T00:03:08.404Z,19.21
2017-08-26T00:03:48.943Z,19.31
2017-08-26T00:04:29.478Z,19.25
2017-08-26T00:05:10.025Z,19.23
2017-08-26T00:05:50.565Z,19.21
2017-08-26T00:06:31.100Z,19.16
2017-08-26T00:07:11.640Z,19.19
2017-08-26T00:07:52.183Z,19.13
2017-08-26T00:08:32.737Z,19.16
2017-08-26T00:09:13.262Z,19.18
2017-08-26T00:09:53.798Z,19.19
2017-08-26T00:10:34.340Z,19.11
2017-08-26T00:11:14.879Z,19.19
2017-08-26T00:11:55.417Z,19.19
2017-08-26T00:12:35.960Z,19.21
2017-08-26T00:13:16.499Z,19.21
2017-08-26T00:13:57.040Z,19.11
2017-08-26T00:14:37.578Z,19.1
2017-08-26T00:15:18.140Z,19.21
2017-08-26T00:15:58.657Z,19.18
2017-08-26T00:16:39.197Z,19.16
2017-08-26T00:17:19.732Z,19.16
2017-08-26T00:18:00.272Z,19.16
2017-08-26T00:18:40.810Z,19.19
2017-08-26T00:19:21.346Z,19.11
2017-08-26T00:20:01.885Z,19.16
2017-08-26T00:20:42.422Z,19.13
2017-08-26T00:21:22.961Z,19.07
2017-08-26T00:22:03.494Z,19.07
2017-08-26T00:22:44.038Z,19.16
2017-08-26T00:23:24.579Z,19.07
2017-08-26T00:24:05.120Z,19.19
2017-08-26T00:24:45.658Z,19.02
2017-08-26T00:25:26.209Z,19.11
2017-08-26T00:26:06.746Z,19.08
2017-08-26T00:26:47.285Z,19.02
2017-08-26T00:27:27.831Z,19.07
2017-08-26T00:28:08.365Z,19.04
2017-08-26T00:28:48.897Z,19.08
2017-08-26T00:29:29.432Z,18.99
2017-08-26T00:30:09.960Z,18.99
2017-08-26T00:30:50.502Z,19
2017-08-26T00:31:31.039Z,19.04
2017-08-26T00:32:11.580Z,18.95
2017-08-26T00:32:52.117Z,18.98
2017-08-26T00:33:32.658Z,18.95
2017-08-26T00:34:13.192Z,18.99
2017-08-26T00:34:53.727Z,18.95
2017-08-26T00:35:34.266Z,18.99
2017-08-26T00:36:14.806Z,19.04
2017-08-26T00:36:55.346Z,18.92
2017-08-26T00:37:35.884Z,19.02
2017-08-26T00:38:16.425Z,18.92
2017-08-26T00:38:56.961Z,19
2017-08-26T00:39:37.496Z,18.99
2017-08-26T00:40:18.041Z,18.99
2017-08-26T00:40:58.582Z,19
2017-08-26T00:41:39.124Z,18.95
2017-08-26T00:42:19.663Z,18.99
2017-08-26T00:43:00.202Z,18.98
2017-08-26T00:43:40.741Z,18.94
2017-08-26T00:44:21.284Z,18.99
2017-08-26T00:45:01.811Z,18.98
2017-08-26T00:45:42.352Z,18.98
2017-08-26T00:46:22.890Z,18.98
2017-08-26T00:47:03.427Z,19
2017-08-26T00:47:43.964Z,18.98
2017-08-26T00:48:24.506Z,19
2017-08-26T00:49:05.051Z,19.02
2017-08-26T00:49:45.589Z,18.92
2017-08-26T00:50:26.127Z,19
2017-08-26T00:51:06.664Z,18.91
2017-08-26T00:51:47.199Z,18.95
2017-08-26T00:52:27.740Z,18.9
2017-08-26T00:53:08.278Z,18.99
2017-08-26T00:53:48.821Z,18.99
2017-08-26T00:54:29.360Z,19.02
2017-08-26T00:55:09.899Z,18.91
2017-08-26T00:55:50.430Z,18.95
2017-08-26T00:56:30.957Z,18.94
2017-08-26T00:57:11.496Z,19
2017-08-26T00:57:52.038Z,19.07
2017-08-26T00:58:32.584Z,19.02
2017-08-26T00:59:13.131Z,18.99
2017-08-26T00:59:53.670Z,19.08
2017-08-26T01:00:34.228Z,19.07
2017-08-26T01:01:14.769Z,18.99
2017-08-26T01:01:55.307Z,19.02
2017-08-26T01:02:35.838Z,19.04
2017-08-26T01:03:16.376Z,19.13
2017-08-26T01:03:56.903Z,19.06
2017-08-26T01:04:37.444Z,19.07
2017-08-26T01:05:17.983Z,19.06
2017-08-26T01:05:58.525Z,19.06
2017-08-26T01:06:39.041Z,19.02
2017-08-26T01:07:19.579Z,19.08
2017-08-26T01:08:00.118Z,19.02
2017-08-26T01:08:40.655Z,19.11
2017-08-26T01:09:21.197Z,19.08
2017-08-26T01:10:01.735Z,19.11
2017-08-26T01:10:42.271Z,19.07
2017-08-26T01:11:22.811Z,19.02
2017-08-26T01:12:03.336Z,19.06
2017-08-26T01:12:43.868Z,19.02
2017-08-26T01:13:24.401Z,19.06
2017-08-26T01:14:04.980Z,19.06
2017-08-26T01:14:45.512Z,19.08
2017-08-26T01:15:26.029Z,19.04
2017-08-26T01:16:06.574Z,19.04
2017-08-26T01:16:47.111Z,19.04
2017-08-26T01:17:27.637Z,19.04
2017-08-26T01:18:08.173Z,19.04
2017-08-26T01:18:48.719Z,19.07
2017-08-26T01:19:29.266Z,19.06
2017-08-26T01:20:09.798Z,19.06
2017-08-26T01:20:50.334Z,19.06
2017-08-26T01:21:30.876Z,19.06
2017-08-26T01:22:11.418Z,19.02
2017-08-26T01:22:51.958Z,19
2017-08-26T01:23:32.496Z,19.04
2017-08-26T01:24:13.035Z,19.02
2017-08-26T01:24:53.572Z,19.02
2017-08-26T01:25:34.115Z,19.06
2017-08-26T01:26:14.653Z,19.06
2017-08-26T01:26:55.201Z,19.08
2017-08-26T01:27:35.738Z,18.99
2017-08-26T01:28:16.285Z,19.08
2017-08-26T01:28:56.818Z,18.99
2017-08-26T01:29:37.351Z,19.1
2017-08-26T01:30:17.890Z,19.02
2017-08-26T01:30:58.428Z,18.99
2017-08-26T01:31:38.970Z,19.02
2017-08-26T01:32:19.510Z,19.11
2017-08-26T01:33:00.044Z,19
2017-08-26T01:33:40.630Z,18.92
2017-08-26T01:34:21.158Z,19.04
2017-08-26T01:35:01.704Z,19.06
2017-08-26T01:35:42.239Z,19
2017-08-26T01:36:22.779Z,19.02
2017-08-26T01:37:03.314Z,19.02
2017-08-26T01:37:43.847Z,19.02
2017-08-26T01:38:24.390Z,19.07
2017-08-26T01:39:04.924Z,19.06
2017-08-26T01:39:45.466Z,19.07
2017-08-26T01:40:26.004Z,19.06
2017-08-26T01:41:06.542Z,19.06
2017-08-26T01:41:47.085Z,19.13
2017-08-26T01:42:27.621Z,19.07
2017-08-26T01:43:08.158Z,19.14
2017-08-26T01:43:48.694Z,19.07
2017-08-26T01:44:29.233Z,19.02
2017-08-26T01:45:09.771Z,19.08
2017-08-26T01:45:50.312Z,19.06
2017-08-26T01:46:30.849Z,19.06
2017-08-26T01:47:11.400Z,19.04
2017-08-26T01:47:51.929Z,19.04
2017-08-26T01:48:32.466Z,19.02
2017-08-26T01:49:13.008Z,19.02
2017-08-26T01:49:53.531Z,19.06
2017-08-26T01:50:34.076Z,19.06
2017-08-26T01:51:14.613Z,19.06
2017-08-26T01:51:55.152Z,19.04
2017-08-26T01:52:35.688Z,19.02
2017-08-26T01:53:16.224Z,19.06
2017-08-26T01:53:56.759Z,19.02
2017-08-26T01:54:37.299Z,19
2017-08-26T01:55:17.829Z,18.98
2017-08-26T01:55:58.369Z,18.98
2017-08-26T01:56:38.911Z,19.04
2017-08-26T01:57:19.449Z,18.99
2017-08-26T01:57:59.990Z,18.98
2017-08-26T01:58:40.531Z,18.92
2017-08-26T01:59:21.068Z,18.92
2017-08-26T02:00:01.606Z,18.95
2017-08-26T02:00:42.144Z,18.94
2017-08-26T02:01:22.688Z,18.84
2017-08-26T02:02:03.226Z,18.88
2017-08-26T02:02:43.764Z,18.99
2017-08-26T02:03:24.306Z,18.92
2017-08-26T02:04:04.843Z,18.91
2017-08-26T02:04:45.380Z,18.95
2017-08-26T02:05:25.916Z,18.94
2017-08-26T02:06:06.465Z,18.92
2017-08-26T02:06:46.991Z,18.94
2017-08-26T02:07:27.529Z,18.88
2017-08-26T02:08:08.067Z,18.87
2017-08-26T02:08:48.610Z,18.87
2017-08-26T02:09:29.144Z,18.87
2017-08-26T02:10:09.675Z,18.87
2017-08-26T02:10:50.217Z,18.88
2017-08-26T02:11:30.753Z,18.94
2017-08-26T02:12:11.292Z,18.9
2017-08-26T02:12:51.834Z,18.91
2017-08-26T02:13:32.375Z,18.98
2017-08-26T02:14:12.915Z,18.87
2017-08-26T02:14:53.455Z,18.9
2017-08-26T02:15:33.990Z,18.95
2017-08-26T02:16:14.531Z,18.92
2017-08-26T02:16:55.070Z,18.98
2017-08-26T02:17:35.602Z,18.94
2017-08-26T02:18:16.131Z,18.94
2017-08-26T02:18:56.667Z,18.91
2017-08-26T02:19:37.203Z,18.91
2017-08-26T02:20:17.736Z,18.95
2017-08-26T02:20:58.277Z,18.87
2017-08-26T02:21:38.806Z,18.91
2017-08-26T02:22:19.344Z,18.92
2017-08-26T02:22:59.881Z,18.92
2017-08-26T02:23:40.424Z,18.98
2017-08-26T02:24:20.963Z,18.92
2017-08-26T02:25:01.499Z,18.92
2017-08-26T02:25:42.040Z,18.94
2017-08-26T02:26:22.578Z,18.95
2017-08-26T02:27:03.121Z,18.92
2017-08-26T02:27:43.659Z,18.98
2017-08-26T02:28:24.191Z,19
2017-08-26T02:29:04.727Z,18.99
2017-08-26T02:29:45.258Z,18.92
2017-08-26T02:30:25.782Z,18.95
2017-08-26T02:31:06.324Z,18.94
2017-08-26T02:31:46.875Z,18.94
2017-08-26T02:32:27.413Z,18.98
2017-08-26T02:33:07.948Z,18.94
2017-08-26T02:33:48.491Z,18.99
2017-08-26T02:34:29.006Z,18.94
2017-08-26T02:35:09.539Z,19
2017-08-26T02:35:50.063Z,18.95
2017-08-26T02:36:30.597Z,19
2017-08-26T02:37:11.131Z,18.94
2017-08-26T02:37:51.670Z,18.92
2017-08-26T02:38:32.208Z,18.94
2017-08-26T02:39:12.749Z,18.9
2017-08-26T02:39:53.291Z,18.9
2017-08-26T02:40:33.829Z,18.99
2017-08-26T02:41:14.369Z,19.02
2017-08-26T02:41:54.908Z,19
2017-08-26T02:42:35.449Z,18.95
2017-08-26T02:43:15.999Z,18.99
2017-08-26T02:43:56.538Z,18.88
2017-08-26T02:44:37.071Z,18.9
2017-08-26T02:45:18.518Z,18.92
2017-08-26T02:46:05.948Z,18.98
2017-08-26T02:46:46.485Z,18.92
2017-08-26T02:47:27.023Z,18.95
2017-08-26T02:48:07.563Z,18.95
2017-08-26T02:48:48.111Z,18.98
2017-08-26T02:49:28.649Z,18.94
2017-08-26T02:50:09.190Z,18.98
2017-08-26T02:50:49.726Z,18.88
2017-08-26T02:51:30.252Z,18.95
2017-08-26T02:52:10.787Z,18.98
2017-08-26T02:52:51.322Z,18.94
2017-08-26T02:53:31.860Z,18.92
2017-08-26T02:54:12.399Z,18.95
2017-08-26T02:54:52.934Z,18.88
2017-08-26T02:55:33.474Z,18.94
2017-08-26T02:56:14.013Z,18.98
2017-08-26T02:56:54.551Z,18.88
2017-08-26T02:57:35.088Z,18.95
2017-08-26T02:58:15.630Z,18.95
2017-08-26T02:58:56.171Z,18.91
2017-08-26T02:59:36.710Z,18.88
2017-08-26T03:00:17.249Z,18.91
2017-08-26T03:00:57.787Z,18.9
2017-08-26T03:01:38.342Z,18.98
2017-08-26T03:02:18.883Z,18.92
2017-08-26T03:02:59.424Z,18.88
2017-08-26T03:03:39.968Z,18.88
2017-08-26T03:04:20.508Z,18.9
2017-08-26T03:05:01.044Z,18.9
2017-08-26T03:05:41.594Z,18.98
2017-08-26T03:06:22.132Z,18.91
2017-08-26T03:07:02.670Z,18.84
2017-08-26T03:07:43.206Z,18.94
2017-08-26T03:08:23.745Z,18.85
2017-08-26T03:09:04.285Z,18.91
2017-08-26T03:09:44.826Z,18.88
2017-08-26T03:10:25.366Z,18.91
2017-08-26T03:11:05.902Z,18.9
2017-08-26T03:11:46.483Z,18.94
2017-08-26T03:12:27.017Z,18.9
2017-08-26T03:13:07.560Z,18.95
2017-08-26T03:13:48.083Z,18.88
2017-08-26T03:14:28.619Z,18.91
2017-08-26T03:15:09.154Z,18.94
2017-08-26T03:15:49.693Z,18.91
2017-08-26T03:16:30.235Z,18.94
2017-08-26T03:17:10.773Z,18.92
2017-08-26T03:17:51.309Z,18.94
2017-08-26T03:18:31.847Z,18.92
2017-08-26T03:19:12.388Z,18.87
2017-08-26T03:19:52.930Z,18.87
2017-08-26T03:20:33.471Z,18.9
2017-08-26T03:21:14.005Z,18.84
2017-08-26T03:21:54.537Z,18.88
2017-08-26T03:22:35.068Z,18.9
2017-08-26T03:23:15.613Z,18.92
2017-08-26T03:23:56.156Z,18.91
2017-08-26T03:24:36.691Z,18.87
2017-08-26T03:25:17.232Z,18.87
2017-08-26T03:25:57.770Z,18.85
2017-08-26T03:26:38.310Z,18.87
2017-08-26T03:27:18.845Z,18.85
2017-08-26T03:27:59.384Z,18.92
2017-08-26T03:28:39.922Z,18.9
2017-08-26T03:29:20.461Z,18.87
2017-08-26T03:30:01.002Z,18.9
2017-08-26T03:30:41.540Z,18.84
2017-08-26T03:31:22.080Z,18.9
2017-08-26T03:32:02.621Z,18.81
2017-08-26T03:32:43.157Z,18.82
2017-08-26T03:33:23.698Z,18.9
2017-08-26T03:34:04.234Z,18.87
2017-08-26T03:34:44.771Z,18.84
2017-08-26T03:35:25.308Z,18.82
2017-08-26T03:36:05.846Z,18.88
2017-08-26T03:36:46.386Z,18.85
2017-08-26T03:37:26.927Z,18.8
2017-08-26T03:38:07.457Z,18.9
2017-08-26T03:38:47.990Z,18.87
2017-08-26T03:39:28.527Z,18.87
2017-08-26T03:40:09.062Z,18.9
2017-08-26T03:40:49.606Z,18.82
2017-08-26T03:41:30.137Z,18.82
2017-08-26T03:42:10.676Z,18.88
2017-08-26T03:42:51.217Z,18.82
2017-08-26T03:43:31.756Z,18.92
2017-08-26T03:44:12.300Z,18.78
2017-08-26T03:44:52.842Z,18.8
2017-08-26T03:45:33.384Z,18.81
2017-08-26T03:46:13.925Z,18.82
2017-08-26T03:46:54.468Z,18.88
2017-08-26T03:47:35.001Z,18.81
2017-08-26T03:48:15.534Z,18.81
2017-08-26T03:48:56.072Z,18.78
2017-08-26T03:49:36.669Z,18.8
2017-08-26T03:50:17.207Z,18.78
2017-08-26T03:50:57.743Z,18.8
2017-08-26T03:51:38.281Z,18.84
2017-08-26T03:52:18.828Z,18.81
2017-08-26T03:52:59.362Z,18.81
2017-08-26T03:53:39.898Z,18.76
2017-08-26T03:54:20.440Z,18.8
2017-08-26T03:55:00.983Z,18.82
2017-08-26T03:55:41.523Z,18.76
2017-08-26T03:56:22.063Z,18.78
2017-08-26T03:57:02.605Z,18.76
2017-08-26T03:57:43.149Z,18.75
2017-08-26T03:58:23.683Z,18.75
2017-08-26T03:59:04.213Z,18.72
2017-08-26T03:59:44.823Z,18.75
2017-08-26T04:00:25.381Z,18.84
2017-08-26T04:01:05.915Z,18.76
2017-08-26T04:01:46.456Z,18.75
2017-08-26T04:02:26.996Z,18.7
2017-08-26T04:03:07.551Z,18.73
2017-08-26T04:03:48.096Z,18.67
2017-08-26T04:04:28.636Z,18.78
2017-08-26T04:05:09.176Z,18.75
2017-08-26T04:05:49.711Z,18.75
2017-08-26T04:06:30.254Z,18.72
2017-08-26T04:07:10.790Z,18.72
2017-08-26T04:07:51.333Z,18.69
2017-08-26T04:08:31.880Z,18.75
2017-08-26T04:09:12.415Z,18.7
2017-08-26T04:09:52.958Z,18.78
2017-08-26T04:10:33.498Z,18.76
2017-08-26T04:11:14.042Z,18.65
2017-08-26T04:11:54.581Z,18.73
2017-08-26T04:12:35.122Z,18.73
2017-08-26T04:13:15.656Z,18.67
2017-08-26T04:13:56.195Z,18.76
2017-08-26T04:14:36.723Z,18.76
2017-08-26T04:15:17.270Z,18.69
2017-08-26T04:15:57.814Z,18.75
2017-08-26T04:16:38.352Z,18.73
2017-08-26T04:17:18.891Z,18.76
2017-08-26T04:17:59.431Z,18.73
2017-08-26T04:18:39.961Z,18.78
2017-08-26T04:19:20.497Z,18.73
2017-08-26T04:20:01.037Z,18.73
2017-08-26T04:20:41.574Z,18.69
2017-08-26T04:21:22.113Z,18.76
2017-08-26T04:22:02.658Z,18.78
2017-08-26T04:22:43.279Z,18.7
2017-08-26T04:23:23.946Z,18.75
2017-08-26T04:24:04.484Z,18.7
2017-08-26T04:24:45.021Z,18.72
2017-08-26T04:25:25.560Z,18.75
2017-08-26T04:26:06.145Z,18.8
2017-08-26T04:26:46.682Z,18.76
2017-08-26T04:27:27.213Z,18.76
2017-08-26T04:28:07.754Z,18.8
2017-08-26T04:28:48.295Z,18.75
2017-08-26T04:29:28.840Z,18.78
2017-08-26T04:30:09.376Z,18.76
2017-08-26T04:30:49.919Z,18.78
2017-08-26T04:31:30.458Z,18.78
2017-08-26T04:32:10.992Z,18.8
2017-08-26T04:32:51.538Z,18.8
2017-08-26T04:33:32.067Z,18.81
2017-08-26T04:34:12.604Z,18.8
2017-08-26T04:34:53.146Z,18.82
2017-08-26T04:35:33.683Z,18.8
2017-08-26T04:36:14.212Z,18.78
2017-08-26T04:36:54.751Z,18.81
2017-08-26T04:37:35.292Z,18.76
2017-08-26T04:38:15.822Z,18.82
2017-08-26T04:38:56.365Z,18.84
2017-08-26T04:39:36.903Z,18.8
2017-08-26T04:40:17.443Z,18.82
2017-08-26T04:40:57.978Z,18.8
2017-08-26T04:41:38.515Z,18.81
2017-08-26T04:42:19.057Z,18.78
2017-08-26T04:42:59.598Z,18.76
2017-08-26T04:43:40.226Z,18.8
2017-08-26T04:44:20.764Z,18.78
2017-08-26T04:45:01.307Z,18.84
2017-08-26T04:45:41.848Z,18.8
2017-08-26T04:46:22.388Z,18.78
2017-08-26T04:47:02.929Z,18.76
2017-08-26T04:47:43.473Z,18.78
2017-08-26T04:48:24.005Z,18.81
2017-08-26T04:49:04.557Z,18.82
2017-08-26T04:49:45.085Z,18.82
2017-08-26T04:50:25.622Z,18.78
2017-08-26T04:51:06.157Z,18.75
2017-08-26T04:51:46.689Z,18.82
2017-08-26T04:52:27.225Z,18.82
2017-08-26T04:53:07.761Z,18.78
2017-08-26T04:53:48.311Z,18.81
2017-08-26T04:54:28.839Z,18.8
2017-08-26T04:55:09.389Z,18.78
2017-08-26T04:55:49.925Z,18.75
2017-08-26T04:56:30.470Z,18.76
2017-08-26T04:57:11.011Z,18.81
2017-08-26T04:57:51.550Z,18.78
2017-08-26T04:58:32.068Z,18.81
2017-08-26T04:59:12.613Z,18.76
2017-08-26T04:59:53.166Z,18.8
2017-08-26T05:00:33.706Z,18.8
2017-08-26T05:01:14.249Z,18.78
2017-08-26T05:01:54.786Z,18.78
2017-08-26T05:02:35.325Z,18.75
2017-08-26T05:03:15.862Z,18.76
2017-08-26T05:03:56.476Z,18.78
2017-08-26T05:04:37.001Z,18.75
2017-08-26T05:05:17.536Z,18.69
2017-08-26T05:05:58.083Z,18.8
2017-08-26T05:06:38.620Z,18.75
2017-08-26T05:07:19.157Z,18.7
2017-08-26T05:07:59.703Z,18.78
2017-08-26T05:08:40.249Z,18.8
2017-08-26T05:09:20.788Z,18.76
2017-08-26T05:10:01.387Z,18.75
2017-08-26T05:10:41.914Z,18.75
2017-08-26T05:11:22.451Z,18.76
2017-08-26T05:12:02.988Z,18.72
2017-08-26T05:12:43.528Z,18.81
2017-08-26T05:13:24.089Z,18.78
2017-08-26T05:14:04.631Z,18.75
2017-08-26T05:14:45.178Z,18.76
2017-08-26T05:15:25.698Z,18.8
2017-08-26T05:16:06.242Z,18.7
2017-08-26T05:16:46.777Z,18.7
2017-08-26T05:17:27.306Z,18.81
2017-08-26T05:18:07.845Z,18.78
2017-08-26T05:18:48.396Z,18.67
2017-08-26T05:19:28.929Z,18.72
2017-08-26T05:20:09.465Z,18.7
2017-08-26T05:20:50.001Z,18.75
2017-08-26T05:21:30.528Z,18.65
2017-08-26T05:22:11.057Z,18.76
2017-08-26T05:22:51.590Z,18.8
2017-08-26T05:23:32.140Z,18.73
2017-08-26T05:24:12.669Z,18.8
2017-08-26T05:24:53.206Z,18.76
2017-08-26T05:25:33.747Z,18.8
2017-08-26T05:26:14.290Z,18.75
2017-08-26T05:26:54.824Z,18.7
2017-08-26T05:27:35.350Z,18.75
2017-08-26T05:28:15.911Z,18.78
2017-08-26T05:28:56.446Z,18.75
2017-08-26T05:29:37.013Z,18.76
2017-08-26T05:30:17.525Z,18.75
2017-08-26T05:30:58.052Z,18.67
2017-08-26T05:31:38.586Z,18.8
2017-08-26T05:32:19.137Z,18.7
2017-08-26T05:32:59.680Z,18.73
2017-08-26T05:33:40.213Z,18.76
2017-08-26T05:34:20.748Z,18.67
2017-08-26T05:35:01.292Z,18.78
2017-08-26T05:35:41.835Z,18.73
2017-08-26T05:36:22.413Z,18.76
2017-08-26T05:37:02.954Z,18.78
2017-08-26T05:37:43.506Z,18.76
2017-08-26T05:38:24.045Z,18.75
2017-08-26T05:39:04.577Z,18.7
2017-08-26T05:39:45.181Z,18.75
2017-08-26T05:40:25.724Z,18.81
2017-08-26T05:41:06.259Z,18.7
2017-08-26T05:41:46.797Z,18.73
2017-08-26T05:42:27.341Z,18.8
2017-08-26T05:43:08.389Z,18.78
2017-08-26T05:43:48.927Z,18.75
2017-08-26T05:44:29.470Z,18.8
2017-08-26T05:45:10.001Z,18.8
2017-08-26T05:45:50.528Z,18.81
2017-08-26T05:46:31.067Z,18.82
2017-08-26T05:47:11.819Z,18.82
2017-08-26T05:47:52.354Z,18.78
2017-08-26T05:48:32.902Z,18.82
2017-08-26T05:49:13.505Z,18.78
2017-08-26T05:49:54.036Z,18.76
2017-08-26T05:50:34.585Z,18.8
2017-08-26T05:51:15.139Z,18.82
2017-08-26T05:51:55.657Z,18.82
2017-08-26T05:52:36.197Z,18.8
2017-08-26T05:53:16.733Z,18.85
2017-08-26T05:53:57.274Z,18.87
2017-08-26T05:54:37.806Z,18.92
2017-08-26T05:55:18.345Z,18.81
2017-08-26T05:55:59.568Z,18.81
2017-08-26T05:56:40.112Z,18.82
2017-08-26T05:57:20.655Z,18.82
2017-08-26T05:58:01.194Z,18.81
2017-08-26T05:58:41.731Z,18.87
2017-08-26T05:59:22.333Z,18.81
2017-08-26T06:00:02.875Z,18.82
2017-08-26T06:00:43.405Z,18.82
2017-08-26T06:01:23.933Z,18.82
2017-08-26T06:02:04.470Z,18.82
2017-08-26T06:02:45.030Z,18.9
2017-08-26T06:03:25.547Z,18.9
2017-08-26T06:04:06.076Z,18.8
2017-08-26T06:04:46.624Z,18.9
2017-08-26T06:05:27.163Z,18.88
2017-08-26T06:06:07.700Z,18.92
2017-08-26T06:06:48.234Z,18.98
2017-08-26T06:07:28.802Z,18.88
2017-08-26T06:08:09.338Z,19
2017-08-26T06:08:49.870Z,18.94
2017-08-26T06:09:30.412Z,18.94
2017-08-26T06:10:10.948Z,18.99
2017-08-26T06:10:51.484Z,18.99
2017-08-26T06:11:32.027Z,18.95
2017-08-26T06:12:12.582Z,18.98
2017-08-26T06:12:53.125Z,18.99
2017-08-26T06:13:33.662Z,18.9
2017-08-26T06:14:14.198Z,18.95
2017-08-26T06:14:54.731Z,18.99
2017-08-26T06:15:35.278Z,19
2017-08-26T06:16:15.825Z,18.94
2017-08-26T06:16:56.365Z,18.9
2017-08-26T06:17:36.910Z,18.99
2017-08-26T06:18:17.556Z,18.92
2017-08-26T06:18:58.108Z,18.99
2017-08-26T06:19:38.701Z,18.99
2017-08-26T06:20:19.223Z,18.99
2017-08-26T06:20:59.766Z,18.99
2017-08-26T06:21:40.314Z,18.94
2017-08-26T06:22:20.852Z,18.94
2017-08-26T06:23:01.406Z,19.04
2017-08-26T06:23:41.931Z,18.91
2017-08-26T06:24:22.471Z,19.04
2017-08-26T06:25:03.006Z,18.99
2017-08-26T06:25:43.541Z,19.02
2017-08-26T06:26:24.078Z,19.02
2017-08-26T06:27:04.622Z,19.02
2017-08-26T06:27:45.163Z,19.04
2017-08-26T06:28:25.703Z,19.1
2017-08-26T06:29:06.241Z,19.19
2017-08-26T06:29:46.782Z,19.13
2017-08-26T06:30:27.316Z,19.19
2017-08-26T06:31:07.864Z,19.18
2017-08-26T06:31:48.402Z,19.07
2017-08-26T06:32:28.949Z,19.16
2017-08-26T06:33:09.478Z,19.1
2017-08-26T06:33:50.012Z,19.1
2017-08-26T06:34:30.602Z,19.16
2017-08-26T06:35:13.160Z,19.18
2017-08-26T06:35:53.716Z,19.11
2017-08-26T06:36:34.253Z,19.1
2017-08-26T06:37:14.792Z,19.11
2017-08-26T06:37:55.330Z,19.21
2017-08-26T06:38:35.870Z,19.22
2017-08-26T06:39:16.405Z,19.22
2017-08-26T06:39:56.950Z,19.23
2017-08-26T06:40:37.482Z,19.11
2017-08-26T06:41:18.019Z,19.29
2017-08-26T06:41:58.559Z,19.28
2017-08-26T06:42:39.103Z,19.29
2017-08-26T06:43:19.627Z,19.23
2017-08-26T06:44:00.158Z,19.23
2017-08-26T06:44:40.708Z,19.19
2017-08-26T06:45:21.242Z,19.32
2017-08-26T06:46:01.785Z,19.25
2017-08-26T06:46:42.329Z,19.26
2017-08-26T06:47:22.867Z,19.31
2017-08-26T06:48:03.415Z,19.25
2017-08-26T06:48:43.966Z,19.25
2017-08-26T06:49:24.491Z,19.29
2017-08-26T06:50:05.044Z,19.26
2017-08-26T06:50:45.705Z,19.28
2017-08-26T06:51:26.247Z,19.23
2017-08-26T06:52:06.909Z,19.29
2017-08-26T06:52:47.433Z,19.33
2017-08-26T06:53:27.991Z,19.26
2017-08-26T06:54:08.529Z,19.28
2017-08-26T06:54:49.060Z,19.29
2017-08-26T06:55:29.606Z,19.26
2017-08-26T06:56:10.152Z,19.31
2017-08-26T06:56:50.693Z,19.29
2017-08-26T06:57:31.235Z,19.36
2017-08-26T06:58:11.805Z,19.37
2017-08-26T06:58:52.354Z,19.37
2017-08-26T06:59:32.937Z,19.32
2017-08-26T07:00:13.478Z,19.33
2017-08-26T07:00:54.015Z,19.37
2017-08-26T07:01:34.625Z,19.44
2017-08-26T07:02:15.154Z,19.41
2017-08-26T07:02:55.692Z,19.39
2017-08-26T07:03:36.236Z,19.37
2017-08-26T07:04:16.763Z,19.37
2017-08-26T07:04:57.417Z,19.43
2017-08-26T07:05:37.956Z,19.4
2017-08-26T07:06:18.488Z,19.46
2017-08-26T07:06:59.017Z,19.4
2017-08-26T07:07:39.557Z,19.47
2017-08-26T07:08:20.097Z,19.4
2017-08-26T07:09:00.642Z,19.5
2017-08-26T07:09:41.177Z,19.48
2017-08-26T07:10:21.724Z,19.4
2017-08-26T07:11:02.260Z,19.54
2017-08-26T07:11:42.801Z,19.55
2017-08-26T07:12:23.357Z,19.55
2017-08-26T07:13:03.902Z,19.51
2017-08-26T07:13:44.436Z,19.59
2017-08-26T07:14:24.976Z,19.54
2017-08-26T07:15:05.513Z,19.59
2017-08-26T07:15:46.054Z,19.59
2017-08-26T07:16:26.602Z,19.54
2017-08-26T07:17:07.294Z,19.58
2017-08-26T07:17:47.862Z,19.58
2017-08-26T07:18:28.437Z,19.58
2017-08-26T07:19:08.973Z,19.71
2017-08-26T07:19:49.540Z,19.66
2017-08-26T07:20:30.081Z,19.71
2017-08-26T07:21:10.615Z,19.73
2017-08-26T07:21:51.155Z,19.73
2017-08-26T07:22:31.682Z,19.76
2017-08-26T07:23:12.199Z,19.77
2017-08-26T07:23:52.728Z,19.65
2017-08-26T07:24:33.269Z,19.76
2017-08-26T07:25:13.809Z,19.76
2017-08-26T07:25:54.367Z,19.66
2017-08-26T07:26:34.913Z,19.71
2017-08-26T07:27:15.465Z,19.69
2017-08-26T07:27:56.024Z,19.65
2017-08-26T07:28:36.503Z,19.73
2017-08-26T07:29:17.081Z,19.77
2017-08-26T07:29:57.576Z,19.78
2017-08-26T07:30:38.112Z,19.74
2017-08-26T07:31:18.669Z,19.8
2017-08-26T07:31:59.219Z,19.74
2017-08-26T07:32:39.731Z,19.78
2017-08-26T07:33:20.257Z,19.77
2017-08-26T07:34:00.799Z,19.92
2017-08-26T07:34:41.352Z,19.87
2017-08-26T07:35:21.894Z,19.81
2017-08-26T07:36:02.441Z,19.96
2017-08-26T07:36:42.971Z,19.99
2017-08-26T07:37:23.507Z,19.98
2017-08-26T07:38:04.045Z,19.99
2017-08-26T07:38:44.609Z,20.06
2017-08-26T07:39:25.143Z,19.99
2017-08-26T07:40:05.678Z,20.05
2017-08-26T07:40:46.227Z,20.02
2017-08-26T07:41:26.780Z,19.99
2017-08-26T07:42:07.295Z,20.02
2017-08-26T07:42:47.818Z,20.05
2017-08-26T07:43:28.351Z,20.1
2017-08-26T07:44:08.889Z,20.18
2017-08-26T07:44:49.419Z,20.16
2017-08-26T07:45:29.964Z,20.17
2017-08-26T07:46:10.501Z,20.17
2017-08-26T07:46:51.043Z,20.18
2017-08-26T07:47:31.581Z,20.23
2017-08-26T07:48:12.134Z,20.16
2017-08-26T07:48:52.669Z,20.2
2017-08-26T07:49:33.216Z,20.2
2017-08-26T07:50:13.750Z,20.24
2017-08-26T07:50:54.303Z,20.29
2017-08-26T07:51:34.840Z,20.38
2017-08-26T07:52:15.378Z,20.43
2017-08-26T07:52:55.919Z,20.43
2017-08-26T07:53:36.461Z,20.36
2017-08-26T07:54:17.003Z,20.36
2017-08-26T07:54:57.549Z,20.35
2017-08-26T07:55:38.091Z,20.43
2017-08-26T07:56:18.620Z,20.36
2017-08-26T07:56:59.148Z,20.43
2017-08-26T07:57:39.676Z,20.26
2017-08-26T07:58:20.220Z,20.29
2017-08-26T07:59:00.758Z,20.29
2017-08-26T07:59:41.306Z,20.28
2017-08-26T08:00:21.846Z,20.41
2017-08-26T08:01:02.397Z,20.38
2017-08-26T08:01:42.912Z,20.41
2017-08-26T08:02:23.464Z,20.48
2017-08-26T08:03:04.000Z,20.57
2017-08-26T08:03:44.529Z,20.54
2017-08-26T08:04:25.102Z,20.57
2017-08-26T08:05:05.658Z,20.62
2017-08-26T08:05:46.203Z,20.54
2017-08-26T08:06:26.759Z,20.55
2017-08-26T08:07:07.280Z,20.57
2017-08-26T08:07:47.824Z,20.58
2017-08-26T08:08:28.357Z,20.66
2017-08-26T08:09:08.902Z,20.57
2017-08-26T08:09:49.428Z,20.55
2017-08-26T08:10:29.985Z,20.66
2017-08-26T08:11:10.489Z,20.59
2017-08-26T08:11:51.035Z,20.59
2017-08-26T08:12:31.573Z,20.59
2017-08-26T08:13:12.107Z,20.64
2017-08-26T08:13:52.636Z,20.62
2017-08-26T08:14:33.171Z,20.67
2017-08-26T08:15:13.708Z,20.66
2017-08-26T08:15:54.262Z,20.54
2017-08-26T08:16:34.830Z,20.58
2017-08-26T08:17:15.352Z,20.58
2017-08-26T08:17:55.903Z,20.57
2017-08-26T08:18:36.463Z,20.61
2017-08-26T08:19:16.988Z,20.47
2017-08-26T08:19:57.521Z,20.66
2017-08-26T08:20:38.054Z,20.61
2017-08-26T08:21:18.604Z,20.61
2017-08-26T08:21:59.139Z,20.62
2017-08-26T08:22:39.676Z,20.61
2017-08-26T08:23:20.225Z,20.79
2017-08-26T08:24:00.751Z,20.7
2017-08-26T08:24:41.314Z,20.7
2017-08-26T08:25:21.837Z,20.72
2017-08-26T08:26:02.389Z,20.76
2017-08-26T08:26:42.927Z,20.8
2017-08-26T08:27:23.460Z,20.72
2017-08-26T08:28:03.990Z,20.74
2017-08-26T08:28:44.700Z,20.76
2017-08-26T08:29:25.261Z,20.76
2017-08-26T08:30:05.796Z,20.72
2017-08-26T08:30:46.342Z,20.73
2017-08-26T08:31:26.876Z,20.72
2017-08-26T08:32:07.410Z,20.72
2017-08-26T08:32:48.084Z,20.7
2017-08-26T08:33:28.723Z,20.72
2017-08-26T08:34:09.339Z,20.85
2017-08-26T08:34:49.902Z,20.88
2017-08-26T08:35:30.458Z,20.88
2017-08-26T08:36:10.981Z,20.98
2017-08-26T08:36:51.532Z,20.91
2017-08-26T08:37:32.079Z,20.91
2017-08-26T08:38:12.673Z,21.01
2017-08-26T08:38:53.205Z,20.92
2017-08-26T08:39:33.749Z,20.88
2017-08-26T08:40:14.297Z,20.94
2017-08-26T08:40:54.833Z,20.97
2017-08-26T08:41:35.414Z,20.94
2017-08-26T08:42:15.942Z,20.98
2017-08-26T08:42:56.479Z,20.94
2017-08-26T08:43:37.016Z,20.98
2017-08-26T08:44:17.570Z,21.14
2017-08-26T08:44:58.104Z,21.14
2017-08-26T08:45:38.644Z,21.19